Time;durP1;ratioP1;P1;durP2;ratioP2;P2;SDS_P1;SDS_P2;PMS_P1;PMS_P2;Temp;Humidity;BMP_temperature;BMP_pressure;BME280_temperature;BME280_humidity;BME280_pressure;Samples;Min_cycle;Max_cycle;Signal;HPM_P1;HPM_P2
2022/10/23 00:02:22;;;;;;;22.15;13.57;;;;;;;10.22;100.00;100613.94;4956555;29;20081;-81
2022/10/23 00:04:51;;;;;;;21.30;12.82;;;;;;;10.19;100.00;100608.38;4956637;29;20031;-81
2022/10/23 00:07:17;;;;;;;21.50;12.68;;;;;;;10.21;100.00;100603.78;4956520;29;20198;-81
2022/10/23 00:09:42;;;;;;;19.70;12.63;;;;;;;10.14;100.00;100592.69;4938908;29;20118;-80
2022/10/23 00:12:08;;;;;;;20.92;11.90;;;;;;;10.18;100.00;100606.81;4955070;29;20054;-81
2022/10/23 00:14:33;;;;;;;18.30;12.18;;;;;;;10.18;100.00;100612.53;4956145;29;20417;-82
2022/10/23 00:16:59;;;;;;;20.08;12.82;;;;;;;10.17;100.00;100617.44;4955363;29;20085;-82
2022/10/23 00:19:24;;;;;;;23.25;13.88;;;;;;;10.11;100.00;100605.09;4955059;29;20030;-81
2022/10/23 00:21:50;;;;;;;18.85;12.05;;;;;;;10.09;100.00;100611.28;4955058;29;20527;-81
2022/10/23 00:24:15;;;;;;;21.45;12.32;;;;;;;9.98;100.00;100601.66;4955875;29;20024;-80
2022/10/23 00:26:41;;;;;;;18.55;12.00;;;;;;;10.01;100.00;100617.81;4954800;29;20031;-81
2022/10/23 00:29:08;;;;;;;21.63;12.95;;;;;;;9.97;100.00;100620.06;4956234;29;20031;-80
2022/10/23 00:31:33;;;;;;;22.20;13.10;;;;;;;9.92;100.00;100615.81;4938907;29;20034;-80
2022/10/23 00:33:59;;;;;;;20.98;11.77;;;;;;;9.91;100.00;100614.22;4956016;29;20027;-82
2022/10/23 00:36:25;;;;;;;19.08;11.02;;;;;;;9.87;100.00;100618.50;4958041;28;20098;-82
2022/10/23 00:38:51;;;;;;;24.92;12.60;;;;;;;9.82;100.00;100604.88;4959746;29;20469;-81
2022/10/23 00:41:22;;;;;;;18.65;11.30;;;;;;;9.85;100.00;100613.28;4958814;29;20027;-81
2022/10/23 00:44:03;;;;;;;18.35;11.90;;;;;;;9.86;100.00;100616.91;4942483;29;20038;-82
2022/10/23 00:46:28;;;;;;;17.15;10.65;;;;;;;9.78;100.00;100609.97;4959843;29;20480;-82
2022/10/23 00:48:54;;;;;;;19.00;11.50;;;;;;;9.77;100.00;100614.91;4942305;29;20098;-81
2022/10/23 00:51:20;;;;;;;20.20;11.77;;;;;;;9.78;100.00;100607.91;4958653;29;20027;-81
2022/10/23 00:53:48;;;;;;;18.80;11.30;;;;;;;9.77;100.00;100605.53;4958470;29;20499;-81
2022/10/23 00:56:13;;;;;;;19.33;12.00;;;;;;;9.77;100.00;100614.91;4958620;29;20027;-81
2022/10/23 00:58:39;;;;;;;18.77;10.95;;;;;;;9.75;100.00;100616.63;4958729;29;20038;-81
2022/10/23 01:01:19;;;;;;;19.33;11.32;;;;;;;9.75;100.00;100617.41;4959472;29;20472;-83
2022/10/23 01:03:45;;;;;;;23.27;11.60;;;;;;;9.73;100.00;100619.19;4959349;29;20038;-81
2022/10/23 01:06:20;;;;;;;25.33;12.38;;;;;;;9.71;100.00;100619.63;4958577;29;20027;-81
2022/10/23 01:08:58;;;;;;;20.13;12.75;;;;;;;9.69;100.00;100627.88;4958324;29;20565;-80
2022/10/23 01:11:35;;;;;;;21.20;12.27;;;;;;;9.66;100.00;100625.97;4958287;29;20499;-82
2022/10/23 01:14:08;;;;;;;17.75;11.95;;;;;;;9.58;100.00;100622.69;4958126;29;20051;-81
2022/10/23 01:16:40;;;;;;;21.38;12.27;;;;;;;9.60;100.00;100633.59;4942041;29;20031;-82
2022/10/23 01:19:25;;;;;;;20.70;12.45;;;;;;;9.57;100.00;100637.41;4959475;29;20082;-81
2022/10/23 01:21:58;;;;;;;22.05;12.98;;;;;;;9.53;100.00;100646.16;4957215;29;20031;-81
2022/10/23 01:24:50;;;;;;;22.15;13.70;;;;;;;9.48;100.00;100640.28;4958301;29;20027;-81
2022/10/23 01:27:35;;;;;;;21.20;12.88;;;;;;;9.45;100.00;100638.38;4959444;29;20523;-81
2022/10/23 01:30:09;;;;;;;22.65;13.23;;;;;;;9.38;100.00;100636.66;4941720;29;20093;-81
2022/10/23 01:33:00;;;;;;;21.10;13.23;;;;;;;9.36;100.00;100635.53;4958980;29;20432;-80
2022/10/23 01:36:02;;;;;;;23.52;14.02;;;;;;;9.30;100.00;100631.75;4957652;29;20078;-81
2022/10/23 01:38:39;;;;;;;22.10;13.20;;;;;;;9.26;100.00;100637.59;4927842;29;20481;-81
2022/10/23 01:41:15;;;;;;;21.85;13.70;;;;;;;9.21;100.00;100639.03;4958560;29;20094;-80
2022/10/23 01:43:53;;;;;;;24.10;14.68;;;;;;;9.18;100.00;100645.69;4957634;28;20023;-81
2022/10/23 01:46:19;;;;;;;23.65;13.30;;;;;;;9.15;100.00;100648.72;4956899;28;20023;-82
2022/10/23 01:48:50;;;;;;;21.63;14.10;;;;;;;9.11;100.00;100642.34;4958644;29;20065;-80
2022/10/23 01:51:16;;;;;;;;;;;;;;;9.08;100.00;100646.16;4958178;29;20023;-81
2022/10/23 01:53:43;;;;;;;23.30;14.57;;;;;;;9.03;100.00;100653.28;4958088;29;19915;-80
2022/10/23 01:56:11;;;;;;;27.25;14.85;;;;;;;9.01;100.00;100644.41;4957455;29;20060;-80
2022/10/23 01:58:37;;;;;;;24.00;14.20;;;;;;;8.96;100.00;100644.22;4957284;29;20457;-82
2022/10/23 02:01:04;;;;;;;25.95;15.27;;;;;;;8.96;100.00;100638.53;4941188;29;20485;-80
2022/10/23 02:03:32;;;;;;;24.83;13.55;;;;;;;9.00;100.00;100650.59;4957310;29;20469;-81
2022/10/23 02:05:57;;;;;;;27.00;14.20;;;;;;;8.93;100.00;100643.13;4941644;29;20116;-81
2022/10/23 02:08:24;;;;;;;24.17;13.15;;;;;;;8.97;100.00;100649.47;4958409;29;20066;-80
2022/10/23 02:11:12;;;;;;;25.35;13.95;;;;;;;8.97;100.00;100649.47;4958209;28;20093;-82
2022/10/23 02:13:58;;;;;;;24.83;13.55;;;;;;;8.93;100.00;100645.97;4941501;29;20476;-81
2022/10/23 02:16:27;;;;;;;24.60;13.57;;;;;;;8.93;100.00;100648.03;4956441;28;20134;-80
2022/10/23 02:19:11;;;;;;;23.50;14.50;;;;;;;8.88;100.00;100646.63;4940869;29;20103;-81
2022/10/23 02:22:15;;;;;;;21.52;12.68;;;;;;;8.87;100.00;100650.72;4958147;29;20401;-81
2022/10/23 02:24:53;;;;;;;24.60;12.93;;;;;;;8.79;100.00;100655.94;4958501;29;20490;-80
2022/10/23 02:27:31;;;;;;;18.50;11.88;;;;;;;8.80;100.00;100656.75;4957083;29;20031;-81
2022/10/23 02:30:03;;;;;;;24.55;12.57;;;;;;;8.75;100.00;100649.63;4940821;29;20527;-80
2022/10/23 02:32:28;;;;;;;18.33;12.77;;;;;;;8.73;100.00;100649.28;4956535;29;20070;-81
2022/10/23 02:34:54;;;;;;;22.65;13.23;;;;;;;8.72;100.00;100652.59;4957044;29;20031;-81
2022/10/23 02:37:19;;;;;;;25.88;14.73;;;;;;;8.70;100.00;100650.22;4940688;29;20509;-81
2022/10/23 02:39:45;;;;;;;23.98;12.18;;;;;;;8.68;100.00;100651.97;4957919;28;20026;-80
2022/10/23 02:42:28;;;;;;;18.10;11.52;;;;;;;8.66;100.00;100649.56;4956813;29;20063;-81
2022/10/23 02:45:06;;;;;;;21.25;12.10;;;;;;;8.70;100.00;100658.00;4956493;29;20035;-81
2022/10/23 02:47:49;;;;;;;21.23;11.82;;;;;;;8.68;100.00;100651.97;4956641;29;20047;-81
2022/10/23 02:50:25;;;;;;;26.40;12.07;;;;;;;8.72;100.00;100650.53;4957710;29;20073;-81
2022/10/23 02:53:00;;;;;;;22.55;12.02;;;;;;;8.76;100.00;100658.94;4940355;29;20023;-81
2022/10/23 02:55:45;;;;;;;20.60;12.55;;;;;;;8.83;100.00;100661.50;4957585;29;20034;-81
2022/10/23 02:58:26;;;;;;;22.45;12.05;;;;;;;8.88;100.00;100648.66;4955603;28;20078;-79
2022/10/23 03:00:55;;;;;;;23.60;12.20;;;;;;;8.95;100.00;100654.06;4956155;29;20384;-81
2022/10/23 03:03:29;;;;;;;20.27;12.02;;;;;;;8.97;100.00;100655.16;4939919;29;20027;-81
2022/10/23 03:05:54;;;;;;;18.25;11.93;;;;;;;9.11;100.00;100659.44;4957429;29;20031;-81
2022/10/23 03:08:20;;;;;;;19.48;11.05;;;;;;;9.20;100.00;100671.66;4956119;29;20090;-80
2022/10/23 03:10:45;;;;;;;15.40;10.43;;;;;;;9.08;100.00;100631.91;4956937;29;20357;-80
2022/10/23 03:13:10;;;;;;;18.60;11.82;;;;;;;9.27;100.00;100654.25;4957054;29;20059;-81
2022/10/23 03:15:36;;;;;;;17.63;10.48;;;;;;;9.35;100.00;100662.50;4957182;29;20031;-81
2022/10/23 03:18:01;;;;;;;21.55;10.85;;;;;;;9.37;100.00;100669.28;4957287;29;20428;-81
2022/10/23 03:20:27;;;;;;;17.85;10.55;;;;;;;9.36;100.00;100658.34;4939639;29;20540;-80
2022/10/23 03:22:52;;;;;;;16.30;10.23;;;;;;;9.30;100.00;100652.47;4955942;29;20031;-80
2022/10/23 03:25:17;;;;;;;16.85;10.88;;;;;;;9.24;100.00;100631.59;4956861;29;20042;-80
2022/10/23 03:27:43;;;;;;;17.33;9.75;;;;;;;9.44;100.00;100660.41;4939702;29;20023;-80
2022/10/23 03:30:09;;;;;;;17.55;10.25;;;;;;;9.47;100.00;100659.44;4955608;29;20055;-81
2022/10/23 03:32:34;;;;;;;20.45;9.50;;;;;;;9.43;100.00;100650.28;4956194;29;20031;-80
2022/10/23 03:35:00;;;;;;;15.65;9.45;;;;;;;9.55;100.00;100671.31;4956789;28;20384;-81
2022/10/23 03:37:25;;;;;;;13.55;9.65;;;;;;;9.55;100.00;100665.63;4955475;29;20500;-81
2022/10/23 03:39:51;;;;;;;14.63;9.52;;;;;;;9.64;100.00;100666.41;4955916;28;20033;-80
2022/10/23 03:42:16;;;;;;;16.10;9.25;;;;;;;9.66;100.00;100663.88;4955901;28;20492;-81
2022/10/23 03:44:42;;;;;;;16.20;9.20;;;;;;;9.68;100.00;100663.41;4938920;29;20081;-81
2022/10/23 03:47:09;;;;;;;16.70;9.68;;;;;;;9.79;100.00;100666.56;4955608;28;20114;-81
2022/10/23 03:49:34;;;;;;;14.30;9.88;;;;;;;9.88;100.00;100671.47;4954810;29;20484;-81
2022/10/23 03:52:00;;;;;;;15.32;9.15;;;;;;;9.89;100.00;100673.84;4954939;29;20031;-81
2022/10/23 03:54:27;;;;;;;15.05;9.13;;;;;;;9.93;100.00;100665.13;4955938;28;20063;-81
2022/10/23 03:56:53;;;;;;;16.60;9.85;;;;;;;9.97;100.00;100672.25;4956060;28;20027;-81
2022/10/23 03:59:18;;;;;;;16.98;9.52;;;;;;;9.94;100.00;100655.28;4955013;29;20031;-81
2022/10/23 04:01:44;;;;;;;16.20;8.90;;;;;;;10.01;100.00;100663.50;4938623;29;20038;-80
2022/10/23 04:04:10;;;;;;;11.32;8.20;;;;;;;10.03;100.00;100658.13;4938553;29;20027;-80
2022/10/23 04:06:35;;;;;;;16.05;9.27;;;;;;;9.95;100.00;100642.56;4954381;29;20382;-80
2022/10/23 04:09:01;;;;;;;16.38;9.32;;;;;;;9.94;100.00;100643.88;4938147;29;20114;-81
2022/10/23 04:11:26;;;;;;;15.50;8.82;;;;;;;9.92;100.00;100652.13;4937767;29;20142;-81
2022/10/23 04:13:51;;;;;;;15.52;10.35;;;;;;;9.84;100.00;100650.88;4955938;28;20063;-80
2022/10/23 04:16:17;;;;;;;15.13;10.05;;;;;;;9.72;100.00;100646.09;4955499;29;20050;-80
2022/10/23 04:18:42;;;;;;;15.25;10.18;;;;;;;9.68;100.00;100647.06;4938522;29;20035;-80
2022/10/23 04:21:10;;;;;;;18.52;10.43;;;;;;;9.59;100.00;100640.59;4955678;29;20038;-80
2022/10/23 04:23:38;;;;;;;18.88;11.85;;;;;;;9.46;100.00;100629.34;4954221;29;20066;-80
2022/10/23 04:26:04;;;;;;;20.45;11.00;;;;;;;9.55;100.00;100645.66;4938344;29;20046;-81
2022/10/23 04:28:29;;;;;;;18.10;11.75;;;;;;;9.51;100.00;100647.88;4955681;29;20027;-80
2022/10/23 04:30:54;;;;;;;18.75;10.15;;;;;;;9.40;100.00;100634.09;4955186;29;20472;-81
2022/10/23 04:33:20;;;;;;;16.63;10.82;;;;;;;9.45;100.00;100642.00;4954213;29;20062;-81
2022/10/23 04:35:45;;;;;;;18.38;10.68;;;;;;;9.40;100.00;100642.66;4954299;29;20030;-81
2022/10/23 04:38:11;;;;;;;13.05;9.93;;;;;;;9.37;100.00;100643.63;4955305;29;20027;-81
2022/10/23 04:40:37;;;;;;;17.70;11.02;;;;;;;9.33;100.00;100645.03;4955323;28;20030;-81
2022/10/23 04:43:02;;;;;;;15.80;10.55;;;;;;;9.36;100.00;100652.63;4954038;29;20107;-80
2022/10/23 04:45:28;;;;;;;18.92;11.25;;;;;;;9.26;100.00;100646.94;4955051;29;20114;-81
2022/10/23 04:47:55;;;;;;;18.05;10.63;;;;;;;9.29;100.00;100664.38;4954869;29;20401;-80
2022/10/23 04:50:22;;;;;;;16.88;9.65;;;;;;;9.25;100.00;100671.00;4955286;29;20031;-81
2022/10/23 04:52:47;;;;;;;17.48;10.68;;;;;;;9.17;100.00;100657.56;4954142;29;20032;-80
2022/10/23 04:55:13;;;;;;;16.60;9.77;;;;;;;9.21;100.00;100669.59;4954007;29;20460;-80
2022/10/23 04:57:38;;;;;;;15.38;10.02;;;;;;;9.17;100.00;100664.06;4937989;29;20472;-81
2022/10/23 05:00:06;;;;;;;15.77;9.45;;;;;;;9.16;100.00;100662.47;4938115;29;20023;-81
2022/10/23 05:02:31;;;;;;;17.30;10.57;;;;;;;9.15;100.00;100669.44;4938199;29;20038;-80
2022/10/23 05:04:56;;;;;;;19.10;10.95;;;;;;;9.14;100.00;100669.91;4955189;28;20023;-80
2022/10/23 05:07:22;;;;;;;19.23;10.35;;;;;;;9.05;100.00;100672.78;4953817;29;20540;-80
2022/10/23 05:09:47;;;;;;;15.98;9.90;;;;;;;9.07;100.00;100675.91;4954896;29;20031;-80
2022/10/23 05:12:12;;;;;;;20.92;9.90;;;;;;;9.06;100.00;100677.97;4937806;29;20369;-81
2022/10/23 05:14:38;;;;;;;16.60;9.95;;;;;;;9.07;100.00;100684.47;4955242;28;20380;-80
2022/10/23 05:17:11;;;;;;;18.23;10.65;;;;;;;9.05;100.00;100672.78;4954095;29;20031;-80
2022/10/23 05:19:41;;;;;;;18.42;10.10;;;;;;;9.02;100.00;100677.34;4937946;29;20023;-80
2022/10/23 05:22:07;;;;;;;16.92;9.80;;;;;;;9.06;100.00;100689.38;4955820;28;20027;-81
2022/10/23 05:24:33;;;;;;;18.92;10.60;;;;;;;9.07;100.00;100681.63;4957347;29;20126;-81
2022/10/23 05:26:58;;;;;;;20.17;11.20;;;;;;;9.01;100.00;100680.66;4958597;29;20106;-81
2022/10/23 05:29:23;;;;;;;19.90;10.25;;;;;;;9.04;100.00;100694.78;4941672;29;20027;-81
2022/10/23 05:31:52;;;;;;;19.42;10.00;;;;;;;9.03;100.00;100690.34;4956912;29;20023;-80
2022/10/23 05:34:19;;;;;;;17.27;10.35;;;;;;;8.93;100.00;100677.34;4958398;28;20315;-80
2022/10/23 05:36:45;;;;;;;17.95;9.98;;;;;;;9.08;100.00;100683.22;4941296;29;20096;-80
2022/10/23 05:39:10;;;;;;;19.88;11.40;;;;;;;9.01;100.00;100675.75;4973313;28;20483;-81
2022/10/23 05:41:36;;;;;;;17.83;10.30;;;;;;;9.11;100.00;100693.66;4958159;29;20135;-80
2022/10/23 05:44:01;;;;;;;19.48;10.13;;;;;;;9.10;100.00;100687.16;4940753;29;20034;-81
2022/10/23 05:46:27;;;;;;;18.38;9.68;;;;;;;9.15;100.00;100692.22;4957765;29;20102;-80
2022/10/23 05:48:53;;;;;;;19.98;10.13;;;;;;;9.18;100.00;100696.22;4956408;29;20049;-81
2022/10/23 05:51:21;;;;;;;16.90;10.05;;;;;;;9.22;100.00;100699.69;4940438;29;20027;-80
2022/10/23 05:53:51;;;;;;;14.55;9.60;;;;;;;9.19;100.00;100681.50;4940720;29;20019;-81
2022/10/23 05:56:17;;;;;;;15.25;8.77;;;;;;;9.14;100.00;100661.38;4956853;29;20484;-81
2022/10/23 05:58:42;;;;;;;14.00;9.68;;;;;;;9.36;100.00;100684.81;4958076;28;20024;-80
2022/10/23 06:01:09;;;;;;;14.18;9.25;;;;;;;9.39;100.00;100677.38;4957832;28;20078;-81
2022/10/23 06:03:36;;;;;;;18.52;10.27;;;;;;;9.44;100.00;100671.84;4956630;29;20114;-81
2022/10/23 06:06:01;;;;;;;16.38;9.98;;;;;;;9.53;100.00;100682.44;4956436;29;20066;-80
2022/10/23 06:08:26;;;;;;;14.48;9.70;;;;;;;9.45;100.00;100664.03;4956860;29;20055;-81
2022/10/23 06:10:52;;;;;;;15.43;10.10;;;;;;;9.65;100.00;100690.81;4956413;29;20083;-81
2022/10/23 06:13:17;;;;;;;14.93;9.85;;;;;;;9.72;100.00;100680.34;4957955;29;20035;-81
2022/10/23 06:15:43;;;;;;;18.42;10.38;;;;;;;9.69;100.00;100671.47;4957670;28;20031;-81
2022/10/23 06:18:08;;;;;;;19.10;10.15;;;;;;;9.84;100.00;100687.97;4957670;29;20023;-80
2022/10/23 06:20:36;;;;;;;16.73;10.20;;;;;;;9.90;100.00;100697.47;4956369;29;20023;-80
2022/10/23 06:23:01;;;;;;;17.17;10.95;;;;;;;9.95;100.00;100694.75;4956630;29;20034;-80
2022/10/23 06:25:27;;;;;;;16.85;9.45;;;;;;;10.02;100.00;100699.34;4957486;29;20031;-80
2022/10/23 06:27:52;;;;;;;17.85;11.20;;;;;;;10.06;100.00;100694.25;4956299;29;20023;-81
2022/10/23 06:30:18;;;;;;;16.52;10.43;;;;;;;10.10;100.00;100707.09;4957366;29;20058;-80
2022/10/23 06:32:43;;;;;;;17.27;10.35;;;;;;;10.22;100.00;100713.09;4955833;28;20469;-80
2022/10/23 06:35:08;;;;;;;15.40;10.55;;;;;;;10.31;100.00;100713.84;4956039;29;20121;-80
2022/10/23 06:37:34;;;;;;;19.33;11.30;;;;;;;10.32;100.00;100683.22;4957384;29;20030;-80
2022/10/23 06:39:59;;;;;;;15.38;10.20;;;;;;;10.52;100.00;100700.63;4957081;29;20015;-80
2022/10/23 06:42:24;;;;;;;14.95;9.43;;;;;;;10.61;100.00;100691.19;4955770;29;20050;-80
2022/10/23 06:44:50;;;;;;;13.20;9.95;;;;;;;10.76;100.00;100704.31;4955727;29;20034;-80
2022/10/23 06:47:15;;;;;;;14.20;10.00;;;;;;;10.91;100.00;100712.94;4956777;28;20058;-80
2022/10/23 06:49:41;;;;;;;15.73;10.80;;;;;;;10.84;100.00;100691.22;4956572;29;20354;-80
2022/10/23 06:52:07;;;;;;;14.43;9.02;;;;;;;11.12;100.00;100713.97;4955515;29;20019;-81
2022/10/23 06:54:32;;;;;;;13.43;9.10;;;;;;;11.20;100.00;100720.91;4940222;29;20113;-81
2022/10/23 06:56:57;;;;;;;11.63;8.43;;;;;;;11.28;100.00;100720.03;4956767;28;20037;-81
2022/10/23 06:59:23;;;;;;;16.08;9.40;;;;;;;11.35;100.00;100719.69;4939335;29;20527;-81
2022/10/23 07:01:48;;;;;;;14.85;9.57;;;;;;;11.42;100.00;100712.78;4955500;29;20038;-81
2022/10/23 07:04:14;;;;;;;14.20;9.57;;;;;;;11.51;100.00;100717.66;4955586;29;20035;-80
2022/10/23 07:06:40;;;;;;;14.38;10.27;;;;;;;11.54;100.00;100708.88;4956700;28;20027;-80
2022/10/23 07:09:06;;;;;;;15.10;9.50;;;;;;;11.63;100.00;100723.09;4956705;29;20114;-80
2022/10/23 07:11:31;;;;;;;14.82;9.70;;;;;;;11.76;100.00;100725.72;4939450;29;20110;-80
2022/10/23 07:13:57;;;;;;;13.55;9.77;;;;;;;11.94;100.00;100714.06;4939285;29;20381;-81
2022/10/23 07:16:23;;;;;;;15.68;9.50;;;;;;;12.35;100.00;100712.19;4955314;29;20465;-81
2022/10/23 07:19:00;;;;;;;12.32;8.82;;;;;;;12.89;100.00;100707.06;4956129;28;20031;-81
2022/10/23 07:21:31;;;;;;;12.55;8.80;;;;;;;13.64;100.00;100715.63;4956543;28;20069;-81
2022/10/23 07:23:57;;;;;;;14.57;8.60;;;;;;;14.37;100.00;100705.69;4954784;29;20531;-81
2022/10/23 07:26:22;;;;;;;14.27;8.13;;;;;;;15.04;100.00;100701.22;4956255;28;20109;-81
2022/10/23 07:28:53;;;;;;;10.48;7.53;;;;;;;15.59;100.00;100700.72;4954870;29;20071;-82
2022/10/23 07:31:22;;;;;;;11.00;6.97;;;;;;;16.06;100.00;100699.00;4954913;29;20026;-82
2022/10/23 07:33:48;;;;;;;9.80;7.35;;;;;;;16.55;100.00;100703.25;4955999;28;20274;-82
2022/10/23 07:36:14;;;;;;;9.85;6.95;;;;;;;16.99;100.00;100701.63;4954780;29;20503;-81
2022/10/23 07:38:40;;;;;;;11.30;7.13;;;;;;;17.31;100.00;100702.84;4954756;29;20027;-81
2022/10/23 07:41:05;;;;;;;12.40;7.13;;;;;;;17.44;100.00;100698.63;4956270;28;20023;-81
2022/10/23 07:43:31;;;;;;;10.63;6.82;;;;;;;17.54;100.00;100699.88;4955916;28;20540;-82
2022/10/23 07:45:56;;;;;;;8.55;6.00;;;;;;;17.70;100.00;100696.94;4955108;28;20035;-83
2022/10/23 07:48:22;;;;;;;11.60;7.20;;;;;;;17.98;100.00;100702.53;4955758;28;20040;-82
2022/10/23 07:50:48;;;;;;;11.15;6.97;;;;;;;18.11;100.00;100704.84;4955749;28;20114;-82
2022/10/23 07:53:19;;;;;;;9.85;7.05;;;;;;;18.18;100.00;100686.88;4955021;29;20119;-82
2022/10/23 07:55:56;;;;;;;11.50;6.17;;;;;;;18.33;100.00;100689.44;4954453;29;20558;-83
2022/10/23 07:58:22;;;;;;;9.02;7.07;;;;;;;18.30;100.00;100702.06;4954457;29;20279;-82
2022/10/23 08:00:57;;;;;;;6.88;6.18;;;;;;;18.22;100.00;100707.66;4938577;29;20102;-82
2022/10/23 08:03:26;;;;;;;9.85;6.95;;;;;;;18.14;100.00;100701.66;4955657;28;20019;-81
2022/10/23 08:05:53;;;;;;;10.30;6.82;;;;;;;18.15;100.00;100709.00;4954342;29;20065;-81
2022/10/23 08:08:19;;;;;;;9.35;6.40;;;;;;;18.14;100.00;100712.44;4955563;28;20023;-82
2022/10/23 08:10:46;;;;;;;11.23;6.97;;;;;;;18.02;100.00;100720.41;4955469;28;20023;-82
2022/10/23 08:13:12;;;;;;;10.18;6.85;;;;;;;17.95;100.00;100720.97;4954389;29;20027;-81
2022/10/23 08:15:40;;;;;;;8.68;6.25;;;;;;;17.89;100.00;100713.63;4955774;28;20050;-82
2022/10/23 08:18:06;;;;;;;10.77;6.15;;;;;;;18.02;100.00;100722.50;4955475;28;20023;-82
2022/10/23 08:20:33;;;;;;;8.23;6.75;;;;;;;18.22;100.00;100722.13;4954421;29;20034;-83
2022/10/23 08:22:58;;;;;;;7.57;6.63;;;;;;;18.26;100.00;100713.94;4955718;28;20110;-82
2022/10/23 08:25:24;;;;;;;9.43;7.13;;;;;;;18.40;100.00;100726.47;4955453;28;20135;-82
2022/10/23 08:27:49;;;;;;;8.77;6.53;;;;;;;18.33;100.00;100709.69;4938670;29;20031;-83
2022/10/23 08:30:15;;;;;;;10.48;7.97;;;;;;;18.40;100.00;100718.59;4938322;29;20109;-82
2022/10/23 08:32:40;;;;;;;11.05;9.05;;;;;;;18.23;100.00;100712.09;4956195;28;20023;-82
2022/10/23 08:35:06;;;;;;;9.93;7.53;;;;;;;18.10;100.00;100709.03;4938484;29;20091;-82
2022/10/23 08:37:31;;;;;;;10.75;7.15;;;;;;;17.92;100.00;100706.81;4956166;28;20027;-82
2022/10/23 08:39:56;;;;;;;9.85;6.88;;;;;;;17.69;100.00;100709.81;4955512;28;20480;-82
2022/10/23 08:42:24;;;;;;;9.23;7.22;;;;;;;17.44;100.00;100715.94;4958750;29;20031;-83
2022/10/23 08:45:03;;;;;;;11.70;6.78;;;;;;;17.28;100.00;100711.78;4965708;28;20027;-83
2022/10/23 08:47:40;;;;;;;12.13;7.40;;;;;;;17.21;100.00;100716.00;4964534;29;20043;-83
2022/10/23 08:50:20;;;;;;;9.30;6.57;;;;;;;17.12;100.00;100713.41;4965285;29;20024;-82
2022/10/23 08:53:37;;;;;;;8.35;6.70;;;;;;;17.11;100.00;100722.59;4968116;28;20027;-82
2022/10/23 08:56:11;;;;;;;10.68;7.05;;;;;;;17.08;100.00;100732.31;4945852;28;20027;-82
2022/10/23 08:58:49;;;;;;;10.75;7.38;;;;;;;17.04;100.00;100717.38;4982828;28;20042;-81
2022/10/23 09:01:36;;;;;;;9.68;6.45;;;;;;;17.10;100.00;100732.56;4982832;28;20019;-81
2022/10/23 09:04:03;;;;;;;8.60;6.55;;;;;;;17.12;100.00;100729.94;4982899;29;20019;-83
2022/10/23 09:06:36;;;;;;;9.70;6.70;;;;;;;17.14;100.00;100730.22;4983342;28;20043;-82
2022/10/23 09:09:17;;;;;;;8.35;6.20;;;;;;;17.11;100.00;100742.81;4963113;29;20031;-82
2022/10/23 09:12:02;;;;;;;8.95;7.13;;;;;;;17.09;100.00;100728.91;4973656;28;20062;-82
2022/10/23 09:14:34;;;;;;;13.15;7.00;;;;;;;17.03;100.00;100733.13;4972841;28;20023;-83
2022/10/23 09:17:08;;;;;;;9.90;5.85;;;;;;;17.03;100.00;100721.56;4975708;28;20057;-82
2022/10/23 09:19:33;;;;;;;8.20;6.10;;;;;;;16.96;100.00;100720.00;4980523;28;20030;-80
2022/10/23 09:21:59;;;;;;;9.45;5.93;;;;;;;17.03;100.00;100716.59;4981051;29;20027;-82
2022/10/23 09:24:30;;;;;;;7.75;5.68;;;;;;;16.91;100.00;100695.59;4981864;28;20015;-82
2022/10/23 09:26:56;;;;;;;8.17;5.40;;;;;;;17.11;100.00;100720.50;4982136;29;20027;-82
2022/10/23 09:29:34;;;;;;;6.93;5.35;;;;;;;17.15;100.00;100721.00;4982837;28;20027;-82
2022/10/23 09:32:02;;;;;;;7.15;5.65;;;;;;;17.21;100.00;100718.91;4981663;29;20011;-82
2022/10/23 09:34:29;;;;;;;8.93;5.60;;;;;;;17.19;100.00;100714.97;4962894;29;20037;-82
2022/10/23 09:37:20;;;;;;;9.20;6.03;;;;;;;17.26;100.00;100728.88;4961166;28;20090;-82
2022/10/23 09:39:46;;;;;;;9.07;5.90;;;;;;;17.19;100.00;100720.75;4960016;28;20115;-81
2022/10/23 09:42:21;;;;;;;6.82;4.60;;;;;;;17.23;100.00;100727.03;4942463;29;20759;-81
2022/10/23 09:44:48;;;;;;;7.68;5.35;;;;;;;17.15;100.00;100723.09;4958938;28;20070;-81
2022/10/23 09:47:18;;;;;;;9.48;5.00;;;;;;;17.04;100.00;100723.16;4956757;29;20544;-81
2022/10/23 09:49:52;;;;;;;9.32;4.88;;;;;;;17.01;100.00;100719.22;4957193;29;20070;-82
2022/10/23 09:52:19;;;;;;;9.05;4.82;;;;;;;16.97;100.00;100728.16;4956803;29;20027;-82
2022/10/23 09:54:47;;;;;;;9.15;5.25;;;;;;;16.98;100.00;100732.63;4958481;28;20027;-82
2022/10/23 09:57:43;;;;;;;7.10;4.82;;;;;;;17.11;100.00;100719.72;4940716;29;20046;-82
2022/10/23 10:00:24;;;;;;;10.82;4.85;;;;;;;17.28;100.00;100714.69;4957808;28;20039;-82
2022/10/23 10:03:00;;;;;;;6.97;4.63;;;;;;;17.44;100.00;100713.06;4958171;28;20376;-81
2022/10/23 10:05:33;;;;;;;5.57;3.58;;;;;;;17.53;100.00;100710.69;4957908;28;20038;-83
2022/10/23 10:08:08;;;;;;;6.03;4.00;;;;;;;17.63;100.00;100709.06;4957317;28;20089;-81
2022/10/23 10:10:39;;;;;;;4.63;3.38;;;;;;;17.64;100.00;100698.25;4956185;29;20031;-83
2022/10/23 10:13:19;;;;;;;4.68;2.83;;;;;;;17.78;100.00;100691.38;4957701;28;20020;-82
2022/10/23 10:15:52;;;;;;;4.78;2.83;;;;;;;17.83;100.00;100702.13;4957439;28;20098;-81
2022/10/23 10:18:37;;;;;;;3.35;2.80;;;;;;;18.09;100.00;100698.78;4956469;29;20355;-82
2022/10/23 10:21:29;;;;;;;5.95;3.30;;;;;;;18.31;100.00;100716.03;4956938;29;20042;-82
2022/10/23 10:24:20;;;;;;;6.70;3.28;;;;;;;18.47;100.00;100694.88;4956204;29;20023;-82
2022/10/23 10:27:07;;;;;;;5.85;3.42;;;;;;;18.65;100.00;100694.16;4956224;29;20027;-82
2022/10/23 10:29:47;;;;;;;4.50;3.70;;;;;;;18.75;100.00;100696.72;4955842;29;20495;-82
2022/10/23 10:32:19;;;;;;;8.63;3.97;;;;;;;18.74;100.00;100695.94;4957057;28;20030;-83
2022/10/23 10:34:55;;;;;;;5.25;3.50;;;;;;;18.66;100.00;100689.97;4957112;28;20466;-82
2022/10/23 10:38:01;;;;;;;8.00;3.40;;;;;;;18.57;100.00;100687.38;4957025;28;20121;-82
2022/10/23 10:41:14;;;;;;;6.70;3.42;;;;;;;18.49;100.00;100680.63;4937516;28;20043;-83
2022/10/23 10:44:00;;;;;;;5.13;3.20;;;;;;;18.42;100.00;100675.44;4917149;29;20047;-82
2022/10/23 10:46:37;;;;;;;5.28;3.08;;;;;;;18.39;100.00;100667.03;4955628;29;20027;-82
2022/10/23 10:49:26;;;;;;;5.30;3.40;;;;;;;18.41;100.00;100675.97;4955338;29;20098;-83
2022/10/23 10:52:29;;;;;;;5.78;3.65;;;;;;;18.45;100.00;100674.34;4962111;28;20043;-82
2022/10/23 10:55:17;;;;;;;5.85;3.35;;;;;;;18.46;100.00;100670.13;4955211;29;20027;-82
2022/10/23 10:58:05;;;;;;;4.57;3.35;;;;;;;18.45;100.00;100668.56;4955386;29;20385;-81
2022/10/23 11:00:32;;;;;;;4.97;3.72;;;;;;;18.42;100.00;100663.88;4955348;29;20031;-81
2022/10/23 11:03:03;;;;;;;5.47;3.20;;;;;;;18.36;100.00;100660.22;4955423;29;20027;-82
2022/10/23 11:05:37;;;;;;;3.95;3.20;;;;;;;18.25;100.00;100654.50;4939239;29;20400;-83
2022/10/23 11:08:26;;;;;;;6.07;3.60;;;;;;;18.14;100.00;100648.78;4971162;28;20113;-82
2022/10/23 11:10:55;;;;;;;5.40;3.35;;;;;;;18.04;100.00;100641.78;4955225;29;20038;-83
2022/10/23 11:13:35;;;;;;;5.13;3.45;;;;;;;17.94;100.00;100643.41;4955186;29;20035;-82
2022/10/23 11:16:05;;;;;;;6.22;3.47;;;;;;;17.84;100.00;100629.28;4955025;29;20476;-82
2022/10/23 11:18:31;;;;;;;5.40;3.75;;;;;;;17.76;100.00;100624.63;4954996;29;20054;-82
2022/10/23 11:20:56;;;;;;;5.10;3.38;;;;;;;17.67;100.00;100628.63;4954104;28;20030;-82
2022/10/23 11:23:38;;;;;;;4.63;3.63;;;;;;;17.58;100.00;100623.16;4956242;28;20031;-82
2022/10/23 11:26:09;;;;;;;5.05;3.53;;;;;;;17.61;100.00;100629.97;4956159;28;20106;-82
2022/10/23 11:29:11;;;;;;;7.97;4.05;;;;;;;17.62;100.00;100623.66;4955983;28;20034;-82